createdAt,value
2019-04-25T00:00:09.915Z,23.67
2019-04-25T00:02:18.583Z,24.00
2019-04-25T00:04:22.859Z,24.60
2019-04-25T00:06:27.877Z,25.12
2019-04-25T00:08:32.090Z,23.50
2019-04-25T00:10:35.951Z,24.77
2019-04-25T00:12:40.129Z,26.68
2019-04-25T00:14:44.112Z,24.18
2019-04-25T00:16:48.224Z,26.05
2019-04-25T00:18:52.314Z,25.95
2019-04-25T00:21:01.274Z,25.88
2019-04-25T00:23:07.106Z,24.25
2019-04-25T00:25:24.623Z,26.37
2019-04-25T00:27:29.253Z,26.23
2019-04-25T00:29:33.111Z,26.77
2019-04-25T00:31:37.064Z,26.65
2019-04-25T00:33:43.663Z,28.80
2019-04-25T00:35:47.438Z,25.97
2019-04-25T00:37:52.538Z,27.60
2019-04-25T00:39:57.301Z,27.02
2019-04-25T00:42:02.325Z,27.40
2019-04-25T00:44:06.776Z,28.55
2019-04-25T00:46:11.434Z,26.80
2019-04-25T00:48:15.593Z,28.32
2019-04-25T00:50:19.583Z,28.85
2019-04-25T00:52:23.857Z,26.85
2019-04-25T00:54:27.905Z,29.07
2019-04-25T00:56:32.200Z,29.27
2019-04-25T00:58:47.109Z,28.90
2019-04-25T01:01:24.804Z,28.57
2019-04-25T01:03:31.714Z,28.32
2019-04-25T01:05:35.776Z,30.32
2019-04-25T01:07:39.800Z,28.12
2019-04-25T01:09:44.297Z,29.20
2019-04-25T01:11:48.423Z,29.90
2019-04-25T01:13:53.313Z,30.57
2019-04-25T01:15:57.464Z,28.15
2019-04-25T01:18:01.472Z,28.65
2019-04-25T01:20:09.087Z,30.05
2019-04-25T01:22:14.466Z,31.70
2019-04-25T01:24:18.923Z,30.25
2019-04-25T01:26:23.957Z,29.30
2019-04-25T01:28:28.208Z,31.50
2019-04-25T01:30:33.865Z,30.77
2019-04-25T01:32:39.137Z,29.10
2019-04-25T01:34:44.590Z,28.98
2019-04-25T01:36:50.757Z,30.30
2019-04-25T01:38:59.265Z,29.90
2019-04-25T01:41:04.860Z,29.85
2019-04-25T01:43:16.376Z,32.17
2019-04-25T01:45:21.934Z,28.25
2019-04-25T01:47:26.352Z,31.27
2019-04-25T01:49:30.192Z,29.55
2019-04-25T01:51:34.469Z,29.52
2019-04-25T01:53:38.375Z,30.37
2019-04-25T01:55:53.814Z,30.77
2019-04-25T01:57:49.289Z,30.32
2019-04-25T01:59:54.109Z,29.42
2019-04-25T02:01:58.924Z,30.70
2019-04-25T02:04:03.592Z,32.23
2019-04-25T02:06:08.425Z,32.17
2019-04-25T02:08:14.175Z,32.17
2019-04-25T02:10:18.321Z,31.82
2019-04-25T02:12:23.970Z,31.87
2019-04-25T02:14:27.975Z,32.65
2019-04-25T02:16:31.815Z,31.12
2019-04-25T02:18:35.787Z,31.95
2019-04-25T02:20:39.792Z,30.88
2019-04-25T02:22:44.174Z,30.65
2019-04-25T02:24:48.576Z,30.55
2019-04-25T02:26:54.776Z,31.95
2019-04-25T02:28:58.422Z,32.83
2019-04-25T02:31:05.825Z,32.03
2019-04-25T02:33:14.003Z,31.52
2019-04-25T02:35:17.476Z,31.65
2019-04-25T02:37:21.492Z,30.65
2019-04-25T02:39:26.307Z,31.25
2019-04-25T02:41:30.379Z,30.12
2019-04-25T02:43:35.638Z,30.30
2019-04-25T02:45:41.240Z,30.65
2019-04-25T02:48:05.711Z,30.68
2019-04-25T02:52:21.115Z,30.95
2019-04-25T02:54:25.183Z,28.12
2019-04-25T02:56:34.423Z,31.62
2019-04-25T02:58:34.734Z,29.63
2019-04-25T03:00:51.831Z,29.37
2019-04-25T03:02:44.659Z,31.02
2019-04-25T03:04:48.938Z,30.90
2019-04-25T03:06:55.215Z,29.20
2019-04-25T03:09:00.095Z,30.05
2019-04-25T03:11:06.355Z,29.92
2019-04-25T03:13:11.871Z,28.73
2019-04-25T03:15:15.499Z,28.05
2019-04-25T03:17:19.814Z,28.38
2019-04-25T03:19:26.326Z,28.12
2019-04-25T03:21:35.441Z,28.52
2019-04-25T03:23:42.426Z,27.13
2019-04-25T03:25:45.061Z,29.37
2019-04-25T03:27:48.964Z,26.77
2019-04-25T03:29:54.182Z,29.63
2019-04-25T03:31:58.290Z,26.20
2019-04-25T03:34:07.099Z,27.70
2019-04-25T03:36:09.230Z,28.45
2019-04-25T03:38:14.497Z,27.17
2019-04-25T03:40:18.644Z,27.95
2019-04-25T03:42:23.983Z,26.97
2019-04-25T03:44:28.212Z,25.65
2019-04-25T03:46:33.390Z,27.50
2019-04-25T03:48:37.337Z,26.27
2019-04-25T03:50:41.243Z,26.42
2019-04-25T03:52:45.089Z,29.40
2019-04-25T03:54:49.092Z,27.27
2019-04-25T03:56:55.603Z,26.90
2019-04-25T03:58:59.027Z,28.85
2019-04-25T04:01:05.936Z,28.67
2019-04-25T04:03:09.073Z,29.05
2019-04-25T04:05:13.889Z,27.30
2019-04-25T04:07:19.204Z,26.87
2019-04-25T04:09:24.035Z,27.30
2019-04-25T04:11:28.037Z,25.68
2019-04-25T04:13:31.928Z,26.15
2019-04-25T04:15:35.811Z,26.80
2019-04-25T04:17:50.049Z,25.72
2019-04-25T04:20:01.327Z,25.77
2019-04-25T04:22:22.112Z,25.08
2019-04-25T04:24:27.565Z,26.23
2019-04-25T04:26:32.806Z,27.17
2019-04-25T04:28:37.132Z,27.77
2019-04-25T04:30:41.227Z,26.75
2019-04-25T04:32:45.833Z,26.80
2019-04-25T04:34:49.744Z,26.77
2019-04-25T04:36:53.774Z,25.70
2019-04-25T04:38:58.004Z,25.15
2019-04-25T04:41:02.071Z,25.77
2019-04-25T04:43:06.028Z,24.12
2019-04-25T04:45:10.394Z,27.30
2019-04-25T04:47:15.380Z,26.45
2019-04-25T04:49:23.836Z,25.10
2019-04-25T04:51:27.823Z,24.98
2019-04-25T04:53:33.830Z,27.85
2019-04-25T04:55:37.293Z,25.23
2019-04-25T04:57:41.289Z,25.57
2019-04-25T04:59:45.308Z,26.12
2019-04-25T05:01:59.993Z,27.58
2019-04-25T05:04:08.479Z,31.15
2019-04-25T05:06:29.132Z,27.02
2019-04-25T05:08:34.590Z,24.57
2019-04-25T05:10:38.729Z,24.60
2019-04-25T05:12:43.780Z,26.15
2019-04-25T05:14:47.873Z,23.65
2019-04-25T05:16:53.228Z,23.75
2019-04-25T05:18:57.320Z,24.65
2019-04-25T05:21:01.223Z,23.30
2019-04-25T05:23:05.232Z,24.35
2019-04-25T05:25:09.241Z,24.47
2019-04-25T05:27:15.409Z,23.95
2019-04-25T05:29:21.317Z,23.52
2019-04-25T05:31:25.857Z,23.92
2019-04-25T05:33:29.727Z,22.13
2019-04-25T05:35:33.579Z,22.48
2019-04-25T05:37:37.447Z,22.73
2019-04-25T05:39:41.321Z,22.35
2019-04-25T05:41:46.837Z,22.35
2019-04-25T05:43:50.980Z,22.85
2019-04-25T05:45:55.153Z,24.47
2019-04-25T05:47:59.161Z,23.80
2019-04-25T05:50:04.173Z,22.13
2019-04-25T05:52:11.682Z,22.55
2019-04-25T05:54:16.494Z,22.60
2019-04-25T05:56:20.619Z,22.22
2019-04-25T05:58:25.794Z,21.05
2019-04-25T06:00:30.169Z,21.20
2019-04-25T06:02:34.145Z,21.75
2019-04-25T06:04:38.057Z,21.80
2019-04-25T06:06:41.966Z,21.10
2019-04-25T06:08:47.635Z,21.48
2019-04-25T06:11:05.480Z,20.05
2019-04-25T06:13:28.515Z,21.02
2019-04-25T06:15:33.271Z,20.35
2019-04-25T06:17:43.425Z,19.92
2019-04-25T06:19:53.309Z,22.80
2019-04-25T06:21:57.692Z,27.00
2019-04-25T06:24:21.230Z,24.05
2019-04-25T06:28:33.450Z,21.00
2019-04-25T06:30:37.198Z,21.25
2019-04-25T06:32:41.143Z,22.15
2019-04-25T06:34:45.165Z,21.17
2019-04-25T06:36:49.060Z,22.05
2019-04-25T06:38:54.188Z,20.27
2019-04-25T06:40:58.303Z,19.85
2019-04-25T06:43:03.344Z,19.32
2019-04-25T06:45:14.150Z,17.98
2019-04-25T06:47:20.234Z,17.98
2019-04-25T06:49:27.722Z,16.52
2019-04-25T06:51:49.391Z,17.10
2019-04-25T06:53:53.507Z,16.25
2019-04-25T06:55:57.360Z,14.73
2019-04-25T06:58:11.417Z,13.70
2019-04-25T07:00:10.235Z,12.05
2019-04-25T07:02:14.161Z,11.90
2019-04-25T07:04:18.002Z,12.65
2019-04-25T07:06:23.301Z,12.10
2019-04-25T07:08:27.784Z,12.43
2019-04-25T07:10:33.564Z,11.57
2019-04-25T07:12:37.373Z,11.57
2019-04-25T07:14:41.848Z,12.20
2019-04-25T07:16:45.978Z,11.83
2019-04-25T07:18:49.967Z,10.25
2019-04-25T07:20:53.872Z,10.38
2019-04-25T07:22:57.883Z,9.50
2019-04-25T07:25:03.555Z,9.85
2019-04-25T07:27:25.516Z,9.05
2019-04-25T07:29:40.970Z,8.30
2019-04-25T07:32:06.005Z,8.48
2019-04-25T07:34:14.545Z,8.43
2019-04-25T07:36:18.576Z,7.95
2019-04-25T07:38:23.752Z,7.12
2019-04-25T07:40:27.741Z,6.83
2019-04-25T07:42:31.837Z,5.30
2019-04-25T07:44:49.359Z,6.05
2019-04-25T07:46:43.196Z,5.92
2019-04-25T07:48:47.145Z,4.90
2019-04-25T07:50:51.019Z,3.87
2019-04-25T07:52:54.965Z,4.70
2019-04-25T07:54:58.884Z,3.80
2019-04-25T07:57:03.640Z,4.15
2019-04-25T07:59:08.152Z,4.03
2019-04-25T08:01:14.086Z,3.75
2019-04-25T08:03:18.083Z,3.47
2019-04-25T08:05:21.908Z,3.62
2019-04-25T08:07:26.060Z,3.60
2019-04-25T08:09:30.004Z,3.35
2019-04-25T08:11:34.803Z,3.67
2019-04-25T08:13:49.799Z,3.47
2019-04-25T08:15:55.290Z,3.15
2019-04-25T08:18:00.745Z,3.52
2019-04-25T08:20:07.379Z,3.40
2019-04-25T08:22:11.452Z,3.35
2019-04-25T08:24:15.698Z,2.80
2019-04-25T08:26:19.575Z,3.30
2019-04-25T08:28:23.746Z,3.17
2019-04-25T08:30:27.623Z,3.65
2019-04-25T08:32:31.506Z,3.33
2019-04-25T08:34:36.302Z,3.60
2019-04-25T08:36:41.498Z,3.52
2019-04-25T08:38:45.415Z,3.42
2019-04-25T08:40:49.230Z,3.75
2019-04-25T08:42:53.752Z,3.30
2019-04-25T08:44:57.957Z,4.05
2019-04-25T08:47:01.745Z,3.83
2019-04-25T08:49:25.998Z,4.00
2019-04-25T08:51:32.182Z,3.70
2019-04-25T08:53:38.950Z,3.62
2019-04-25T08:55:47.524Z,3.00
2019-04-25T08:57:53.968Z,3.65
2019-04-25T09:00:08.703Z,3.45
2019-04-25T09:02:14.107Z,3.80
2019-04-25T09:04:19.636Z,4.22
2019-04-25T09:06:24.391Z,3.75
2019-04-25T09:08:35.461Z,3.72
2019-04-25T09:10:39.964Z,4.20
2019-04-25T09:12:45.272Z,4.17
2019-04-25T09:14:49.448Z,3.50
2019-04-25T09:16:53.480Z,3.72
2019-04-25T09:18:57.576Z,3.67
2019-04-25T09:21:01.505Z,3.77
2019-04-25T09:23:05.790Z,3.62
2019-04-25T09:25:11.680Z,3.87
2019-04-25T09:27:15.490Z,3.83
2019-04-25T09:29:20.133Z,4.12
2019-04-25T09:31:24.208Z,4.05
2019-04-25T09:33:28.383Z,4.20
2019-04-25T09:35:33.479Z,3.77
2019-04-25T09:37:38.522Z,4.55
2019-04-25T09:39:47.418Z,4.50
2019-04-25T09:41:51.438Z,4.00
2019-04-25T09:46:10.592Z,4.08
2019-04-25T09:48:37.470Z,3.75
2019-04-25T09:50:46.374Z,3.58
2019-04-25T09:52:50.284Z,3.47
2019-04-25T09:55:01.400Z,3.42
2019-04-25T09:57:24.663Z,3.75
2019-04-25T09:59:30.106Z,3.92
2019-04-25T10:01:34.077Z,3.37
2019-04-25T10:03:38.646Z,3.60
2019-04-25T10:05:43.020Z,3.08
2019-04-25T10:07:48.889Z,3.12
2019-04-25T10:09:54.470Z,3.47
2019-04-25T10:11:58.154Z,3.65
2019-04-25T10:14:26.682Z,3.47
2019-04-25T10:16:30.544Z,3.30
2019-04-25T10:18:37.018Z,3.37
2019-04-25T10:20:41.867Z,3.30
2019-04-25T10:22:46.568Z,2.95
2019-04-25T10:24:58.893Z,3.02
2019-04-25T10:26:56.163Z,2.83
2019-04-25T10:29:00.032Z,3.37
2019-04-25T10:31:04.178Z,3.65
2019-04-25T10:33:08.115Z,3.45
2019-04-25T10:35:14.642Z,3.60
2019-04-25T10:37:17.436Z,3.40
2019-04-25T10:39:21.445Z,3.65
2019-04-25T10:41:25.397Z,3.08
2019-04-25T10:43:29.250Z,3.67
2019-04-25T10:45:34.060Z,4.22
2019-04-25T10:47:38.219Z,4.30
2019-04-25T10:49:42.584Z,5.08
2019-04-25T10:51:46.696Z,4.17
2019-04-25T10:53:51.310Z,4.45
2019-04-25T10:55:55.297Z,7.42
2019-04-25T10:57:59.252Z,11.60
2019-04-25T11:00:09.057Z,7.22
2019-04-25T11:02:11.363Z,6.12
2019-04-25T11:04:26.042Z,6.12
2019-04-25T11:06:36.791Z,5.60
2019-04-25T11:08:41.697Z,5.78
2019-04-25T11:10:47.470Z,5.17
2019-04-25T11:12:51.262Z,7.80
2019-04-25T11:14:56.260Z,4.50
2019-04-25T11:17:01.886Z,4.45
2019-04-25T11:19:05.845Z,4.72
2019-04-25T11:21:09.723Z,5.00
2019-04-25T11:23:13.993Z,4.80
2019-04-25T11:25:17.977Z,5.25
2019-04-25T11:27:23.765Z,4.80
2019-04-25T11:29:28.990Z,5.15
2019-04-25T11:31:34.471Z,6.83
2019-04-25T11:33:38.306Z,4.30
2019-04-25T11:35:42.193Z,5.92
2019-04-25T11:37:46.112Z,4.30
2019-04-25T11:40:05.310Z,4.45
2019-04-25T11:42:10.177Z,4.22
2019-04-25T11:44:14.194Z,4.10
2019-04-25T11:46:18.314Z,4.47
2019-04-25T11:48:23.748Z,4.10
2019-04-25T11:50:28.744Z,4.40
2019-04-25T11:52:33.624Z,6.15
2019-04-25T11:54:37.696Z,4.53
2019-04-25T11:56:42.655Z,4.60
2019-04-25T11:58:48.097Z,5.05
2019-04-25T12:00:54.133Z,4.40
2019-04-25T12:02:58.347Z,4.58
2019-04-25T12:05:02.369Z,4.62
2019-04-25T12:07:07.167Z,4.17
2019-04-25T12:09:13.765Z,5.08
2019-04-25T12:11:17.581Z,5.20
2019-04-25T12:13:21.508Z,5.28
2019-04-25T12:15:25.474Z,5.20
2019-04-25T12:17:31.176Z,4.83
2019-04-25T12:19:37.818Z,4.92
2019-04-25T12:21:40.821Z,5.05
2019-04-25T12:23:46.363Z,4.90
2019-04-25T12:25:52.016Z,5.53
2019-04-25T12:27:56.718Z,5.28
2019-04-25T12:30:00.609Z,5.00
2019-04-25T12:32:05.113Z,4.90
2019-04-25T12:34:09.005Z,5.15
2019-04-25T12:36:13.603Z,4.65
2019-04-25T12:38:20.282Z,5.37
2019-04-25T12:40:24.227Z,5.97
2019-04-25T12:42:28.250Z,5.45
2019-04-25T12:44:51.759Z,4.97
2019-04-25T12:46:57.203Z,5.42
2019-04-25T12:49:01.399Z,5.40
2019-04-25T12:51:05.255Z,4.65
2019-04-25T12:53:09.219Z,5.33
2019-04-25T12:55:14.233Z,5.12
2019-04-25T12:57:18.467Z,5.33
2019-04-25T12:59:22.304Z,4.60
2019-04-25T13:01:26.178Z,5.17
2019-04-25T13:03:30.162Z,5.05
2019-04-25T13:05:34.266Z,5.50
2019-04-25T13:07:38.515Z,5.00
2019-04-25T13:09:42.379Z,4.25
2019-04-25T13:11:46.244Z,4.08
2019-04-25T13:13:52.464Z,3.95
2019-04-25T13:15:58.864Z,4.28
2019-04-25T13:18:03.552Z,4.45
2019-04-25T13:20:07.855Z,4.37
2019-04-25T13:22:12.319Z,4.45
2019-04-25T13:24:16.285Z,4.12
2019-04-25T13:26:21.739Z,3.80
2019-04-25T13:28:27.492Z,4.97
2019-04-25T13:30:59.620Z,4.08
2019-04-25T13:33:02.333Z,4.67
2019-04-25T13:35:20.155Z,4.70
2019-04-25T13:37:24.238Z,4.83
2019-04-25T13:39:28.465Z,4.30
2019-04-25T13:41:32.473Z,4.62
2019-04-25T13:43:36.794Z,4.28
2019-04-25T13:45:40.798Z,4.45
2019-04-25T13:47:44.805Z,4.62
2019-04-25T13:49:50.347Z,4.30
2019-04-25T13:51:54.244Z,4.87
2019-04-25T13:53:58.112Z,5.03
2019-04-25T13:56:03.464Z,5.28
2019-04-25T13:58:08.456Z,4.67
2019-04-25T14:00:14.136Z,5.83
2019-04-25T14:02:18.544Z,4.92
2019-04-25T14:04:25.066Z,4.58
2019-04-25T14:06:29.128Z,5.20
2019-04-25T14:08:33.535Z,5.20
2019-04-25T14:10:37.611Z,5.30
2019-04-25T14:12:47.527Z,5.33
2019-04-25T14:14:51.368Z,4.92
2019-04-25T14:16:56.987Z,4.55
2019-04-25T14:19:25.608Z,4.55
2019-04-25T14:21:29.298Z,4.70
2019-04-25T14:23:34.538Z,4.03
2019-04-25T14:25:44.137Z,4.28
2019-04-25T14:27:48.461Z,4.15
2019-04-25T14:29:53.558Z,4.45
2019-04-25T14:31:57.643Z,4.92
2019-04-25T14:34:03.325Z,4.08
2019-04-25T14:36:10.029Z,4.55
2019-04-25T14:38:13.963Z,4.67
2019-04-25T14:40:18.140Z,4.12
2019-04-25T14:42:23.084Z,4.12
2019-04-25T14:44:27.034Z,4.42
2019-04-25T14:46:32.148Z,4.05
2019-04-25T14:48:36.750Z,4.22
2019-04-25T14:50:40.625Z,4.53
2019-04-25T14:52:44.502Z,4.15
2019-04-25T14:57:18.287Z,4.58
2019-04-25T14:59:23.596Z,3.40
2019-04-25T15:01:28.070Z,3.98
2019-04-25T15:03:32.182Z,3.62
2019-04-25T15:05:36.119Z,3.15
2019-04-25T15:07:40.691Z,3.70
2019-04-25T15:09:44.688Z,3.77
2019-04-25T15:11:48.570Z,4.00
2019-04-25T15:13:52.615Z,3.62
2019-04-25T15:15:56.787Z,3.45
2019-04-25T15:18:00.996Z,4.20
2019-04-25T15:20:06.790Z,3.70
2019-04-25T15:22:10.794Z,4.22
2019-04-25T15:24:14.760Z,4.40
2019-04-25T15:26:18.767Z,3.67
2019-04-25T15:28:24.394Z,3.52
2019-04-25T15:33:26.398Z,3.22
2019-04-25T15:35:50.343Z,3.47
2019-04-25T15:37:58.271Z,3.67
2019-04-25T15:40:06.708Z,3.47
2019-04-25T15:42:28.506Z,3.00
2019-04-25T15:44:46.341Z,3.35
2019-04-25T15:46:51.884Z,3.40
2019-04-25T15:48:55.789Z,4.03
2019-04-25T15:50:59.698Z,3.72
2019-04-25T15:53:04.210Z,3.37
2019-04-25T15:55:08.219Z,3.77
2019-04-25T15:57:12.571Z,3.47
2019-04-25T15:59:16.542Z,4.15
2019-04-25T16:01:20.456Z,4.03
2019-04-25T16:03:24.605Z,3.55
2019-04-25T16:05:29.897Z,3.87
2019-04-25T16:07:33.904Z,4.00
2019-04-25T16:09:38.013Z,3.92
2019-04-25T16:11:42.020Z,3.35
2019-04-25T16:13:45.907Z,3.90
2019-04-25T16:15:57.175Z,3.67
2019-04-25T16:18:01.021Z,4.28
2019-04-25T16:20:05.821Z,3.55
2019-04-25T16:22:09.696Z,4.28
2019-04-25T16:24:13.752Z,4.62
2019-04-25T16:26:17.838Z,4.35
2019-04-25T16:28:21.969Z,3.95
2019-04-25T16:30:28.278Z,4.00
2019-04-25T16:32:32.501Z,3.55
2019-04-25T16:34:36.397Z,3.95
2019-04-25T16:36:40.503Z,4.50
2019-04-25T16:38:44.414Z,4.10
2019-04-25T16:40:48.615Z,3.70
2019-04-25T16:42:53.094Z,4.58
2019-04-25T16:44:57.076Z,3.62
2019-04-25T16:47:01.312Z,4.30
2019-04-25T16:49:05.320Z,4.17
2019-04-25T16:51:09.232Z,4.40
2019-04-25T16:53:13.478Z,3.90
2019-04-25T16:55:17.636Z,4.58
2019-04-25T16:57:21.526Z,4.40
2019-04-25T16:59:25.563Z,4.45
2019-04-25T17:01:30.258Z,3.87
2019-04-25T17:03:35.341Z,4.28
2019-04-25T17:05:40.353Z,4.28
2019-04-25T17:07:44.459Z,4.22
2019-04-25T17:09:48.473Z,3.60
2019-04-25T17:11:52.578Z,4.35
2019-04-25T17:13:58.122Z,3.92
2019-04-25T17:16:03.546Z,3.85
2019-04-25T17:18:09.107Z,4.20
2019-04-25T17:20:23.561Z,4.08
2019-04-25T17:22:27.464Z,4.30
2019-04-25T17:24:34.657Z,4.08
2019-04-25T17:26:39.422Z,4.17
2019-04-25T17:28:48.539Z,4.60
2019-04-25T17:31:00.190Z,4.40
2019-04-25T17:33:08.392Z,4.55
2019-04-25T17:35:26.633Z,5.12
2019-04-25T17:37:32.084Z,4.08
2019-04-25T17:39:37.548Z,4.20
2019-04-25T17:41:41.412Z,5.03
2019-04-25T17:43:45.313Z,4.75
2019-04-25T17:45:49.163Z,4.87
2019-04-25T17:47:55.001Z,4.40
2019-04-25T17:49:58.583Z,4.83
2019-04-25T17:52:02.476Z,4.30
2019-04-25T17:54:06.700Z,4.83
2019-04-25T17:56:10.706Z,4.72
2019-04-25T17:58:16.247Z,4.60
2019-04-25T18:00:28.292Z,5.15
2019-04-25T18:02:33.523Z,5.17
2019-04-25T18:04:38.298Z,4.75
2019-04-25T18:06:42.183Z,5.35
2019-04-25T18:08:46.121Z,5.70
2019-04-25T18:10:50.139Z,5.62
2019-04-25T18:12:54.028Z,5.67
2019-04-25T18:14:59.439Z,5.37
2019-04-25T18:17:03.337Z,6.35
2019-04-25T18:19:11.857Z,5.72
2019-04-25T18:21:15.745Z,6.45
2019-04-25T18:23:21.338Z,6.15
2019-04-25T18:25:38.786Z,6.30
2019-04-25T18:27:44.335Z,6.08
2019-04-25T18:29:48.171Z,5.62
2019-04-25T18:31:52.425Z,6.30
2019-04-25T18:33:57.863Z,6.35
2019-04-25T18:36:09.417Z,7.50
2019-04-25T18:38:21.124Z,7.25
2019-04-25T18:40:29.530Z,6.75
2019-04-25T18:42:41.951Z,6.87
2019-04-25T18:44:46.571Z,6.80
2019-04-25T18:46:50.541Z,7.05
2019-04-25T18:48:54.514Z,7.50
2019-04-25T18:50:58.396Z,7.28
2019-04-25T18:53:06.515Z,7.10
2019-04-25T18:55:23.916Z,7.37
2019-04-25T18:57:29.437Z,7.55
2019-04-25T18:59:44.015Z,8.75
2019-04-25T19:02:01.306Z,8.18
2019-04-25T19:04:16.557Z,8.45
2019-04-25T19:06:22.354Z,8.08
2019-04-25T19:08:26.231Z,7.60
2019-04-25T19:10:30.201Z,7.28
2019-04-25T19:12:34.284Z,7.78
2019-04-25T19:14:39.904Z,7.90
2019-04-25T19:16:43.835Z,8.58
2019-04-25T19:18:48.047Z,8.28
2019-04-25T19:20:52.394Z,8.53
2019-04-25T19:22:56.482Z,8.35
2019-04-25T19:25:00.351Z,8.68
2019-04-25T19:27:04.273Z,9.10
2019-04-25T19:29:08.152Z,8.23
2019-04-25T19:31:12.012Z,8.00
2019-04-25T19:33:15.896Z,8.00
2019-04-25T19:35:19.800Z,7.78
2019-04-25T19:37:23.700Z,8.03
2019-04-25T19:39:29.195Z,8.00
2019-04-25T19:41:51.830Z,8.35
2019-04-25T19:44:03.352Z,7.95
2019-04-25T19:46:07.355Z,7.70
2019-04-25T19:48:11.206Z,8.28
2019-04-25T19:50:15.095Z,7.92
2019-04-25T19:52:18.984Z,6.83
2019-04-25T19:54:22.836Z,7.92
2019-04-25T19:56:26.796Z,7.20
2019-04-25T19:58:30.807Z,8.35
2019-04-25T20:00:36.964Z,7.67
2019-04-25T20:02:46.670Z,7.87
2019-04-25T20:04:53.056Z,7.80
2019-04-25T20:07:16.563Z,7.83
2019-04-25T20:11:45.327Z,7.53
2019-04-25T20:13:49.574Z,7.62
2019-04-25T20:15:53.872Z,8.18
2019-04-25T20:17:59.039Z,8.20
2019-04-25T20:20:03.314Z,8.23
2019-04-25T20:22:07.242Z,8.68
2019-04-25T20:24:11.123Z,7.70
2019-04-25T20:26:15.154Z,8.20
2019-04-25T20:28:19.447Z,8.13
2019-04-25T20:30:23.798Z,8.80
2019-04-25T20:32:27.799Z,9.43
2019-04-25T20:34:31.785Z,9.30
2019-04-25T20:36:35.570Z,8.55
2019-04-25T20:38:39.490Z,8.93
2019-04-25T20:40:46.323Z,8.38
2019-04-25T20:42:51.765Z,9.23
2019-04-25T20:44:56.061Z,9.15
2019-04-25T20:47:00.269Z,8.78
2019-04-25T20:49:04.515Z,9.30
2019-04-25T20:51:08.424Z,9.23
2019-04-25T20:53:12.543Z,9.68
2019-04-25T20:55:16.821Z,8.35
2019-04-25T20:57:20.842Z,9.78
2019-04-25T20:59:28.163Z,9.05
2019-04-25T21:01:32.273Z,9.13
2019-04-25T21:03:36.475Z,9.13
2019-04-25T21:05:41.302Z,9.80
2019-04-25T21:07:45.631Z,9.80
2019-04-25T21:09:51.182Z,10.65
2019-04-25T21:11:55.795Z,10.18
2019-04-25T21:14:01.745Z,10.23
2019-04-25T21:16:23.818Z,9.68
2019-04-25T21:18:29.381Z,10.15
2019-04-25T21:20:33.634Z,11.05
2019-04-25T21:22:38.069Z,9.98
2019-04-25T21:24:42.165Z,11.28
2019-04-25T21:26:46.462Z,9.85
2019-04-25T21:28:51.000Z,10.35
2019-04-25T21:30:55.649Z,10.70
2019-04-25T21:33:00.341Z,10.65
2019-04-25T21:35:06.252Z,11.28
2019-04-25T21:37:10.737Z,9.73
2019-04-25T21:39:17.312Z,11.18
2019-04-25T21:41:39.822Z,10.95
2019-04-25T21:43:45.873Z,10.68
2019-04-25T21:45:51.892Z,11.85
2019-04-25T21:47:56.900Z,12.47
2019-04-25T21:50:01.418Z,11.65
2019-04-25T21:52:05.775Z,10.55
2019-04-25T21:54:10.251Z,10.95
2019-04-25T21:56:16.598Z,12.15
2019-04-25T21:58:20.690Z,11.28
2019-04-25T22:00:45.283Z,11.35
2019-04-25T22:02:50.008Z,11.22
2019-04-25T22:04:54.403Z,11.55
2019-04-25T22:07:00.833Z,11.28
2019-04-25T22:09:12.723Z,11.05
2019-04-25T22:11:16.895Z,10.70
2019-04-25T22:13:21.451Z,11.22
2019-04-25T22:15:27.968Z,11.45
2019-04-25T22:17:32.613Z,11.22
2019-04-25T22:19:37.224Z,11.40
2019-04-25T22:21:41.844Z,10.70
2019-04-25T22:23:47.346Z,11.30
2019-04-25T22:25:51.641Z,11.90
2019-04-25T22:27:56.545Z,10.90
2019-04-25T22:30:01.412Z,10.80
2019-04-25T22:32:19.396Z,12.50
2019-04-25T22:34:31.631Z,12.10
2019-04-25T22:36:35.907Z,10.78
2019-04-25T22:38:40.540Z,11.55
2019-04-25T22:40:44.980Z,11.45
2019-04-25T22:42:49.395Z,11.03
2019-04-25T22:44:53.409Z,12.15
2019-04-25T22:46:57.404Z,13.03
2019-04-25T22:49:01.374Z,13.20
2019-04-25T22:51:05.845Z,12.90
2019-04-25T22:53:21.498Z,12.98
2019-04-25T22:55:15.407Z,12.47
2019-04-25T22:57:19.575Z,12.80
2019-04-25T22:59:23.680Z,12.65
2019-04-25T23:01:38.334Z,13.00
2019-04-25T23:03:46.480Z,13.08
2019-04-25T23:05:52.069Z,12.90
2019-04-25T23:07:56.354Z,12.80
2019-04-25T23:10:01.946Z,12.47
2019-04-25T23:12:06.886Z,13.65
2019-04-25T23:14:11.287Z,12.40
2019-04-25T23:16:15.138Z,13.80
2019-04-25T23:18:19.202Z,11.88
2019-04-25T23:20:23.107Z,13.15
2019-04-25T23:22:27.063Z,13.75
2019-04-25T23:24:32.846Z,14.13
2019-04-25T23:26:38.824Z,14.20
2019-04-25T23:28:44.362Z,13.08
2019-04-25T23:30:59.160Z,13.28
2019-04-25T23:33:04.066Z,13.20
2019-04-25T23:35:24.356Z,13.60
2019-04-25T23:37:15.197Z,12.95
2019-04-25T23:39:19.449Z,13.35
2019-04-25T23:41:23.357Z,12.98
2019-04-25T23:43:27.260Z,12.93
2019-04-25T23:45:31.282Z,13.15
2019-04-25T23:47:35.274Z,13.95
2019-04-25T23:49:39.692Z,12.58
2019-04-25T23:51:44.212Z,12.55
2019-04-25T23:53:48.119Z,12.95
2019-04-25T23:55:52.023Z,12.65
2019-04-25T23:57:55.916Z,12.43
2019-04-25T23:59:59.898Z,12.60
